Andover, Ohio
Current Conditions -  °F | °C
As of 4:53 PM on Friday 24 Oct 2014 (Local Time) from KHZY Reporting Station
Clear Clear  
Wind Chill: 59°   Ceiling: Unl
Heat Index: 59°   Visibility: 10mi
Dew Point: 41°   Wind: 5mph
Humidity: 51%   Direction: 300°WNW
Pressure: 30"   Gusts: NA
Location:  41.61°N, 80.57°W
Report Text: KHZY 242053Z AUTO 30004KT 10SM CLR 15/05 A3000 RMK AO2 SLP160 T01500050 56017
Loading
Personal Weather Stations






























Interactive Weather Map
Tropical Storm Tracking
New forecast layout! Learn more

10-Day Weather Forecast

Advertisements
Track Severe Weather on mobile